Time;durP1;ratioP1;P1;durP2;ratioP2;P2;SDS_P1;SDS_P2;PMS_P1;PMS_P2;Temp;Humidity;BMP_temperature;BMP_pressure;BME280_temperature;BME280_humidity;BME280_pressure;Samples;Min_cycle;Max_cycle;Signal;HPM_P1;HPM_P2
2022/03/22 00:01:03;;;;;;;11.10;4.95;;;;;;;12.34;41.56;101715.97;5035360;28;20059;-75
2022/03/22 00:03:29;;;;;;;13.95;4.93;;;;;;;12.26;41.70;101707.09;5035946;28;20057;-75
2022/03/22 00:05:54;;;;;;;11.07;4.68;;;;;;;12.36;41.24;101707.69;5035252;28;20037;-76
2022/03/22 00:08:20;;;;;;;11.13;5.30;;;;;;;12.27;41.22;101711.47;5035442;28;20052;-75
2022/03/22 00:10:46;;;;;;;12.07;4.55;;;;;;;12.26;41.93;101707.94;5035429;28;20084;-75
2022/03/22 00:13:11;;;;;;;13.32;5.30;;;;;;;12.12;41.67;101712.28;5035629;28;20072;-75
2022/03/22 00:15:37;;;;;;;9.15;4.38;;;;;;;12.20;41.37;101715.91;5035499;28;20365;-75
2022/03/22 00:18:02;;;;;;;11.52;4.93;;;;;;;12.20;41.02;101711.34;5035429;28;20038;-75
2022/03/22 00:20:28;;;;;;;9.95;5.22;;;;;;;11.95;41.88;101720.72;5034111;28;20452;-75
2022/03/22 00:22:54;;;;;;;10.07;4.65;;;;;;;12.00;41.50;101715.63;5035319;28;20534;-76
2022/03/22 00:25:20;;;;;;;12.85;4.95;;;;;;;12.23;41.14;101719.09;5035268;28;20033;-76
2022/03/22 00:27:52;;;;;;;10.45;4.32;;;;;;;12.10;41.60;101717.03;5033923;28;20209;-76
2022/03/22 00:30:22;;;;;;;10.38;4.68;;;;;;;12.16;41.58;101710.91;5034849;28;20040;-75
2022/03/22 00:32:51;;;;;;;10.68;4.85;;;;;;;12.06;42.51;101722.97;5034818;28;20431;-75
2022/03/22 00:35:18;;;;;;;11.40;4.97;;;;;;;12.09;42.01;101728.03;5035055;28;20025;-76
2022/03/22 00:37:46;;;;;;;10.85;4.70;;;;;;;11.94;42.33;101719.91;5034780;28;20026;-77
2022/03/22 00:40:18;;;;;;;10.00;4.47;;;;;;;11.98;42.87;101723.06;5016905;28;20025;-76
2022/03/22 00:42:46;;;;;;;10.68;5.03;;;;;;;11.78;42.84;101728.97;5034851;28;20029;-76
2022/03/22 00:45:18;;;;;;;10.23;4.82;;;;;;;11.85;42.55;101720.97;5035074;28;20357;-76
2022/03/22 00:47:48;;;;;;;12.00;5.13;;;;;;;11.95;42.50;101721.56;5034507;28;20452;-76
2022/03/22 00:50:16;;;;;;;11.10;4.63;;;;;;;11.98;42.02;101723.06;5034700;28;20026;-76
2022/03/22 00:52:43;;;;;;;12.65;5.07;;;;;;;11.82;43.02;101719.47;5033472;28;20037;-76
2022/03/22 00:55:12;;;;;;;14.23;5.35;;;;;;;11.82;42.50;101718.66;5034670;28;20029;-75
2022/03/22 00:57:38;;;;;;;13.73;5.25;;;;;;;11.64;42.76;101718.94;5034381;28;20102;-76
2022/03/22 01:00:07;;;;;;;12.10;5.45;;;;;;;11.53;42.80;101711.22;5034274;28;20036;-76
2022/03/22 01:02:39;;;;;;;16.88;5.80;;;;;;;11.39;43.26;101714.72;5034426;28;20061;-75
2022/03/22 01:05:07;;;;;;;13.23;5.63;;;;;;;11.38;43.62;101715.72;5034232;28;20033;-75
2022/03/22 01:07:33;;;;;;;12.05;5.43;;;;;;;11.41;42.67;101712.69;5034020;28;20073;-76
2022/03/22 01:10:01;;;;;;;11.30;5.15;;;;;;;11.45;43.36;101712.16;5032834;28;20034;-77
2022/03/22 01:12:26;;;;;;;10.95;5.10;;;;;;;11.36;42.56;101713.22;5034405;28;20041;-76
2022/03/22 01:14:52;;;;;;;11.47;4.93;;;;;;;11.37;42.49;101709.50;5034663;28;20038;-76
2022/03/22 01:17:17;;;;;;;;;;;;;;;11.28;42.05;101712.44;5034701;28;20092;-76
2022/03/22 01:19:43;;;;;;;10.48;4.60;;;;;;;11.30;42.40;101713.91;5034003;28;20352;-76
2022/03/22 01:22:08;;;;;;;12.80;4.80;;;;;;;11.53;42.79;101715.78;5034354;28;20041;-76
2022/03/22 01:24:33;;;;;;;11.50;4.87;;;;;;;11.37;42.56;101714.88;5034130;28;20113;-76
2022/03/22 01:26:59;;;;;;;10.73;5.33;;;;;;;11.37;43.31;101714.88;5034346;28;20448;-76
2022/03/22 01:29:24;;;;;;;9.43;4.15;;;;;;;11.32;43.65;101711.88;5032691;28;20279;-76
2022/03/22 01:31:50;;;;;;;10.93;4.47;;;;;;;11.38;42.96;101711.16;5033744;28;20396;-76
2022/03/22 01:34:15;;;;;;;12.30;5.25;;;;;;;11.23;43.17;101710.25;5033654;28;20052;-77
2022/03/22 01:36:41;;;;;;;10.20;4.75;;;;;;;11.44;42.44;101709.63;5034240;28;20056;-76
2022/03/22 01:39:07;;;;;;;10.40;4.50;;;;;;;11.38;42.38;101713.03;5033942;28;20029;-76
2022/03/22 01:41:33;;;;;;;10.25;4.50;;;;;;;11.34;43.14;101706.31;5033926;28;20041;-76
2022/03/22 01:43:59;;;;;;;10.85;4.68;;;;;;;11.26;42.80;101707.22;5033747;28;20132;-76
2022/03/22 01:46:24;;;;;;;10.35;4.32;;;;;;;11.07;43.30;101700.41;5033762;28;20037;-76
2022/03/22 01:48:50;;;;;;;14.03;5.83;;;;;;;10.91;43.01;101707.75;5033832;28;20033;-76
2022/03/22 01:51:17;;;;;;;;;;;;;;;10.92;43.13;101701.34;5034401;28;20303;-76
2022/03/22 01:53:43;;;;;;;12.48;4.97;;;;;;;10.93;42.70;101690.34;5033714;28;19974;-77
2022/03/22 01:56:08;;;;;;;11.82;4.72;;;;;;;10.80;43.31;101698.16;5033360;28;20021;-76
2022/03/22 01:58:34;;;;;;;8.77;4.00;;;;;;;10.72;43.03;101693.66;5033542;28;20455;-76
2022/03/22 02:06:35;;;;;;;9.35;4.97;;;;;;;10.85;41.87;101684.16;5033140;28;20060;-76
2022/03/22 02:09:00;;;;;;;10.95;5.07;;;;;;;10.94;41.42;101683.94;5033214;28;20037;-76
2022/03/22 02:11:26;;;;;;;11.88;5.63;;;;;;;10.90;41.20;101682.63;5033177;28;20033;-75
2022/03/22 02:13:51;;;;;;;12.43;5.03;;;;;;;10.96;41.34;101673.81;5033313;28;20041;-76
2022/03/22 02:16:17;;;;;;;9.40;5.47;;;;;;;11.01;40.63;101678.69;5033084;28;20536;-75
2022/03/22 02:18:43;;;;;;;12.73;4.50;;;;;;;10.96;40.69;101678.38;5033389;28;20037;-76
2022/03/22 02:21:09;;;;;;;11.82;5.40;;;;;;;11.01;40.61;101673.28;5033125;28;20415;-75
2022/03/22 02:23:51;;;;;;;;;;;;;;;11.15;40.15;101669.81;5033956;28;20216;-76
2022/03/22 02:26:18;;;;;;;11.85;4.45;;;;;;;11.37;39.93;101668.16;5033345;28;19991;-75
2022/03/22 02:28:44;;;;;;;10.25;4.07;;;;;;;11.22;40.28;101672.66;5033192;28;20029;-76
2022/03/22 02:31:10;;;;;;;12.20;5.15;;;;;;;11.32;39.83;101673.25;5033001;28;20040;-77
2022/03/22 02:33:39;;;;;;;9.68;4.50;;;;;;;11.25;39.49;101669.63;5032971;28;20117;-75
2022/03/22 02:36:05;;;;;;;15.18;5.30;;;;;;;11.47;39.16;101669.59;5033101;28;20025;-76
2022/03/22 02:38:31;;;;;;;12.35;4.72;;;;;;;11.66;38.40;101675.53;5033477;28;20025;-76
2022/03/22 02:40:56;;;;;;;12.30;5.20;;;;;;;11.43;38.81;101667.47;5033037;28;20033;-76
2022/03/22 02:43:21;;;;;;;11.43;4.63;;;;;;;11.32;38.87;101674.09;5032848;28;20294;-76
2022/03/22 02:45:47;;;;;;;11.30;4.77;;;;;;;11.29;38.97;101666.34;5033142;28;20125;-75
2022/03/22 02:48:12;;;;;;;9.87;4.13;;;;;;;11.34;39.29;101672.06;5032989;28;20430;-75
2022/03/22 02:50:38;;;;;;;15.10;5.80;;;;;;;11.45;38.38;101677.06;5033560;28;20029;-76
2022/03/22 02:53:03;;;;;;;13.87;6.77;;;;;;;11.46;38.35;101678.72;5036986;28;20048;-77
2022/03/22 02:55:28;;;;;;;12.43;4.88;;;;;;;11.36;38.93;101672.72;5037299;28;20036;-76
2022/03/22 02:57:54;;;;;;;11.10;3.90;;;;;;;11.33;39.57;101669.53;5036963;28;20454;-76
2022/03/22 03:00:20;;;;;;;10.13;3.97;;;;;;;11.19;39.71;101671.16;5037155;28;20280;-75
2022/03/22 03:02:51;;;;;;;9.07;4.00;;;;;;;11.14;40.00;101679.78;5036759;28;20034;-76
2022/03/22 03:05:17;;;;;;;11.77;4.38;;;;;;;11.25;39.08;101677.72;5036707;28;20026;-76
2022/03/22 03:07:42;;;;;;;10.52;5.25;;;;;;;11.38;38.29;101673.41;5036410;28;20049;-77
2022/03/22 03:10:09;;;;;;;11.38;4.72;;;;;;;11.43;37.49;101676.41;5036820;28;20516;-76
2022/03/22 03:12:35;;;;;;;13.73;5.47;;;;;;;11.42;37.40;101681.97;5036424;28;20033;-75
2022/03/22 03:15:01;;;;;;;9.30;4.35;;;;;;;11.41;37.29;101683.00;5036424;28;20088;-76
2022/03/22 03:17:27;;;;;;;13.48;5.40;;;;;;;11.35;37.06;101681.84;5036504;28;20457;-76
2022/03/22 03:19:52;;;;;;;10.95;4.18;;;;;;;11.24;37.49;101690.34;5036339;28;20079;-76
2022/03/22 03:22:18;;;;;;;8.00;4.05;;;;;;;11.16;38.43;101690.41;5036425;28;20120;-77
2022/03/22 03:24:43;;;;;;;10.95;4.13;;;;;;;11.23;37.66;101690.53;5018694;28;20033;-76
2022/03/22 03:27:08;;;;;;;11.67;4.00;;;;;;;11.23;37.78;101690.53;5036164;28;20022;-77
2022/03/22 03:29:34;;;;;;;8.67;4.00;;;;;;;10.96;38.46;101691.84;5035106;28;20271;-76
2022/03/22 03:31:59;;;;;;;9.73;3.80;;;;;;;11.03;38.87;101692.84;5036587;28;20029;-76
2022/03/22 03:34:24;;;;;;;9.57;4.38;;;;;;;10.97;38.15;101693.53;5036251;28;20069;-76
2022/03/22 03:36:50;;;;;;;10.13;4.07;;;;;;;10.96;37.95;101698.09;5035977;28;20048;-76
2022/03/22 03:39:16;;;;;;;10.38;4.70;;;;;;;11.01;37.80;101695.72;5036139;28;20025;-76
2022/03/22 03:41:53;;;;;;;10.15;3.83;;;;;;;11.08;37.74;101695.84;5036080;28;20041;-76
2022/03/22 03:47:14;;;;;;;10.93;4.35;;;;;;;10.71;38.40;101696.53;5035763;28;20041;-77
2022/03/22 03:49:50;;;;;;;8.40;3.80;;;;;;;10.90;37.55;101701.50;5036188;28;20022;-75
2022/03/22 03:52:22;;;;;;;9.30;4.05;;;;;;;11.04;37.27;101705.31;5035664;28;20119;-76
2022/03/22 03:54:48;;;;;;;7.72;3.20;;;;;;;10.94;36.82;101705.50;5036083;28;20084;-77
2022/03/22 03:57:14;;;;;;;9.32;3.35;;;;;;;11.11;36.14;101701.72;5018176;28;20476;-77
2022/03/22 03:59:40;;;;;;;;;;;;;;;10.96;36.82;101702.63;5035962;28;20037;-76
2022/03/22 04:02:06;;;;;;;6.67;3.33;;;;;;;10.95;35.48;101711.75;5035227;28;19913;-76
2022/03/22 04:04:34;;;;;;;7.03;3.72;;;;;;;10.81;35.31;101715.19;5017921;28;20038;-76
2022/03/22 04:07:01;;;;;;;7.10;3.70;;;;;;;11.08;35.01;101703.94;5035539;28;20511;-75
2022/03/22 04:09:26;;;;;;;8.90;4.13;;;;;;;11.26;35.02;101709.06;5035606;28;20112;-77
2022/03/22 04:11:51;;;;;;;8.83;3.50;;;;;;;11.24;34.35;101701.16;5035831;28;20475;-76
2022/03/22 04:14:17;;;;;;;9.47;4.03;;;;;;;11.13;35.17;101709.63;5035651;28;20256;-76
2022/03/22 04:16:42;;;;;;;10.50;3.57;;;;;;;11.03;35.14;101707.16;5034187;28;20120;-76
2022/03/22 04:19:08;;;;;;;8.50;3.87;;;;;;;10.82;35.26;101706.91;5035580;28;20256;-76
2022/03/22 04:21:35;;;;;;;10.90;4.25;;;;;;;10.70;34.91;101706.47;5035450;28;20284;-77
2022/03/22 04:24:03;;;;;;;7.35;3.28;;;;;;;10.84;35.84;101706.75;5035169;28;20179;-76
2022/03/22 04:26:28;;;;;;;8.90;3.55;;;;;;;10.70;35.26;101713.72;5035449;28;20068;-77
2022/03/22 04:34:21;;;;;;;6.72;3.65;;;;;;;10.71;35.91;101708.16;5034865;28;20082;-77
2022/03/22 04:36:56;;;;;;;10.10;3.77;;;;;;;10.55;36.60;101705.53;5035205;28;20116;-76
2022/03/22 04:39:24;;;;;;;8.85;3.97;;;;;;;10.46;36.95;101711.94;5035208;28;20032;-76
2022/03/22 04:41:50;;;;;;;9.27;3.75;;;;;;;10.38;36.60;101714.66;5034723;28;20036;-76
2022/03/22 04:44:16;;;;;;;9.02;3.70;;;;;;;10.40;37.08;101716.16;5035096;28;20112;-76
2022/03/22 04:46:42;;;;;;;9.23;4.18;;;;;;;10.42;36.15;101722.22;5035047;28;20033;-77
2022/03/22 04:49:08;;;;;;;10.68;3.95;;;;;;;10.40;36.27;101720.69;5034878;28;20087;-77
2022/03/22 04:57:02;;;;;;;9.80;3.50;;;;;;;10.47;36.87;101720.88;5034601;28;20459;-77
2022/03/22 04:59:28;;;;;;;8.60;3.72;;;;;;;10.36;36.12;101727.47;5034420;28;20476;-77
2022/03/22 05:01:54;;;;;;;11.02;4.63;;;;;;;10.44;35.89;101722.88;5034467;28;20040;-76
2022/03/22 05:04:19;;;;;;;7.90;3.97;;;;;;;10.34;37.25;101716.84;5034599;28;20040;-77
2022/03/22 05:06:45;;;;;;;8.40;3.58;;;;;;;10.39;35.42;101721.75;5033960;28;20547;-76
2022/03/22 05:09:11;;;;;;;7.55;3.58;;;;;;;10.38;35.21;101718.22;5034343;28;20040;-77
2022/03/22 05:11:37;;;;;;;9.45;3.70;;;;;;;10.29;36.23;101721.06;5034411;28;20033;-76
2022/03/22 05:14:03;;;;;;;8.70;3.50;;;;;;;10.19;36.83;101728.50;5033636;28;20128;-76
2022/03/22 05:16:31;;;;;;;8.27;3.58;;;;;;;10.13;37.52;101713.00;5034149;28;20480;-76
2022/03/22 05:18:57;;;;;;;8.40;3.72;;;;;;;10.28;35.78;101727.47;5034258;28;20034;-76
2022/03/22 05:21:24;;;;;;;;;;;;;;;10.18;36.02;101730.34;5034618;28;20033;-76
2022/03/22 05:23:50;;;;;;;7.68;3.40;;;;;;;10.25;35.77;101735.88;5033925;28;19956;-76
2022/03/22 05:26:16;;;;;;;8.38;3.67;;;;;;;10.39;35.10;101733.31;5033867;28;20031;-77
2022/03/22 05:28:43;;;;;;;8.23;3.80;;;;;;;10.62;34.13;101730.75;5033887;28;20033;-77
2022/03/22 05:31:10;;;;;;;8.82;3.30;;;;;;;10.59;34.11;101741.03;5034179;28;20037;-77
2022/03/22 05:33:36;;;;;;;7.30;3.55;;;;;;;10.63;33.75;101735.13;5033853;28;20037;-77
2022/03/22 05:36:02;;;;;;;8.82;3.65;;;;;;;10.59;34.53;101738.34;5034034;28;20033;-76
2022/03/22 05:38:28;;;;;;;9.40;3.90;;;;;;;10.55;35.04;101739.72;5033647;28;20391;-75
2022/03/22 05:40:54;;;;;;;7.60;3.05;;;;;;;10.38;35.31;101741.63;5033884;28;20040;-76
2022/03/22 05:43:19;;;;;;;9.07;3.85;;;;;;;10.41;35.20;101738.56;5033542;28;20474;-76
2022/03/22 05:45:48;;;;;;;8.75;3.55;;;;;;;10.35;35.98;101750.88;5033723;28;20044;-77
2022/03/22 05:48:18;;;;;;;8.60;3.10;;;;;;;10.51;35.22;101755.38;5033422;28;20419;-76
2022/03/22 05:50:43;;;;;;;8.05;3.92;;;;;;;10.42;34.91;101743.78;5033354;28;20033;-76
2022/03/22 05:53:12;;;;;;;7.93;3.70;;;;;;;10.33;35.73;101744.81;5033423;28;20121;-77
2022/03/22 05:55:37;;;;;;;9.85;3.83;;;;;;;10.37;34.73;101748.84;5032636;28;20045;-76
2022/03/22 05:58:03;;;;;;;9.07;3.55;;;;;;;10.36;34.84;101747.16;5033637;28;20025;-75
2022/03/22 06:00:29;;;;;;;9.50;3.65;;;;;;;10.22;35.73;101750.53;5033456;28;20036;-76
2022/03/22 06:02:55;;;;;;;7.60;3.80;;;;;;;10.23;35.99;101749.53;5033738;28;20454;-77
2022/03/22 06:05:21;;;;;;;8.98;3.63;;;;;;;10.25;36.15;101762.81;5033926;28;20049;-76
2022/03/22 06:07:46;;;;;;;;;;;;;;;10.29;36.17;101758.78;5033640;28;20053;-77
2022/03/22 06:10:12;;;;;;;9.15;3.35;;;;;;;10.49;35.21;101754.72;5036020;28;20345;-76
2022/03/22 06:12:40;;;;;;;8.05;3.58;;;;;;;10.31;35.65;101754.06;5033180;28;20134;-75
2022/03/22 06:15:31;;;;;;;9.27;3.90;;;;;;;10.36;35.21;101765.19;5033877;28;20160;-76
2022/03/22 06:17:59;;;;;;;10.40;3.38;;;;;;;10.34;35.13;101761.81;5030716;28;20037;-76
2022/03/22 06:20:27;;;;;;;10.55;3.90;;;;;;;10.27;35.91;101760.81;5033120;28;20164;-76
2022/03/22 06:22:52;;;;;;;7.28;3.38;;;;;;;10.42;35.88;101764.47;5033028;28;20109;-76
2022/03/22 06:25:19;;;;;;;8.85;3.67;;;;;;;10.61;35.00;101768.66;5032044;28;20406;-76
2022/03/22 06:27:47;;;;;;;11.43;4.28;;;;;;;10.49;35.49;101765.50;5037315;28;20121;-75
2022/03/22 06:30:15;;;;;;;9.05;3.72;;;;;;;10.70;34.91;101768.47;5037664;28;20037;-76
2022/03/22 06:32:40;;;;;;;8.85;3.90;;;;;;;10.76;34.39;101767.75;5037481;28;20151;-75
2022/03/22 06:35:06;;;;;;;10.15;4.28;;;;;;;10.63;35.40;101767.47;5037466;28;20475;-76
2022/03/22 06:37:31;;;;;;;10.63;4.57;;;;;;;10.62;35.75;101773.88;5037087;28;20041;-76
2022/03/22 06:39:56;;;;;;;7.63;3.57;;;;;;;10.63;35.09;101767.47;5036872;28;20033;-76
2022/03/22 06:42:22;;;;;;;7.83;3.60;;;;;;;10.69;34.82;101766.78;5037370;28;20070;-76
2022/03/22 06:44:49;;;;;;;10.35;3.90;;;;;;;10.73;34.75;101780.78;5036937;28;20487;-75
2022/03/22 06:47:14;;;;;;;7.93;3.33;;;;;;;10.75;34.64;101776.03;5036796;28;20059;-76
2022/03/22 06:49:39;;;;;;;8.80;3.70;;;;;;;10.84;35.00;101782.25;5037155;28;20524;-75
2022/03/22 06:52:05;;;;;;;10.35;4.18;;;;;;;11.04;33.74;101783.53;5036333;28;20263;-76
2022/03/22 06:54:30;;;;;;;8.98;4.10;;;;;;;10.92;34.36;101793.03;5036604;28;20099;-75
2022/03/22 06:56:57;;;;;;;8.98;3.55;;;;;;;10.98;33.68;101787.75;5034849;28;20415;-75
2022/03/22 06:59:23;;;;;;;8.23;3.95;;;;;;;10.92;34.40;101788.47;5036408;28;20124;-76
2022/03/22 07:01:49;;;;;;;9.02;3.90;;;;;;;11.43;33.76;101791.63;5035238;28;20541;-76
2022/03/22 07:04:14;;;;;;;7.82;3.80;;;;;;;11.51;32.89;101788.00;5036461;28;20049;-75
2022/03/22 07:06:40;;;;;;;10.00;4.85;;;;;;;11.59;33.58;101791.50;5036471;28;20057;-75
2022/03/22 07:09:05;;;;;;;8.83;3.60;;;;;;;11.49;33.46;101797.13;5036194;28;20472;-74
2022/03/22 07:14:14;;;;;;;8.85;4.47;;;;;;;11.70;32.62;101798.34;5036373;28;20453;-75
2022/03/22 07:16:40;;;;;;;8.97;3.80;;;;;;;11.76;33.17;101797.69;5036350;28;20124;-74
2022/03/22 07:19:05;;;;;;;7.87;3.63;;;;;;;11.64;34.71;101796.38;5036066;28;20112;-74
2022/03/22 07:21:31;;;;;;;9.77;3.58;;;;;;;11.69;34.03;101791.28;5035573;28;20112;-74
2022/03/22 07:23:56;;;;;;;9.07;3.33;;;;;;;11.75;34.51;101802.22;5036216;28;20030;-76
2022/03/22 07:26:22;;;;;;;8.67;3.60;;;;;;;11.88;33.31;101798.94;5036009;28;20044;-75
2022/03/22 07:28:48;;;;;;;8.38;4.07;;;;;;;11.97;32.83;101800.56;5035898;28;20271;-75
2022/03/22 07:31:13;;;;;;;8.75;3.63;;;;;;;12.16;32.73;101800.09;5035720;28;20033;-76
2022/03/22 07:33:38;;;;;;;6.67;3.40;;;;;;;12.15;32.93;101802.97;5034617;28;20102;-75
2022/03/22 07:36:04;;;;;;;7.97;3.57;;;;;;;12.27;33.59;101795.25;5034280;28;20033;-75
2022/03/22 07:38:30;;;;;;;10.02;3.60;;;;;;;12.26;32.30;101798.97;5035140;28;20255;-74
2022/03/22 07:40:55;;;;;;;9.32;3.72;;;;;;;12.40;32.66;101803.56;5035588;28;20041;-74
2022/03/22 07:43:20;;;;;;;10.23;4.03;;;;;;;12.76;30.43;101799.16;5035526;28;20027;-75
2022/03/22 07:45:46;;;;;;;8.77;4.00;;;;;;;12.49;32.28;101794.38;5035162;28;20857;-75
2022/03/22 07:48:11;;;;;;;8.95;3.33;;;;;;;12.61;31.74;101794.75;5035075;28;20291;-75
2022/03/22 07:53:21;;;;;;;8.60;4.00;;;;;;;12.85;31.42;101794.50;5035322;28;20468;-75
2022/03/22 07:55:46;;;;;;;10.38;3.58;;;;;;;13.00;31.51;101792.63;5034941;28;20021;-75
2022/03/22 07:58:11;;;;;;;7.88;3.90;;;;;;;13.19;30.22;101797.50;5033704;28;20040;-74
2022/03/22 08:00:40;;;;;;;8.00;3.97;;;;;;;13.24;30.07;101796.94;5034836;28;20029;-75
2022/03/22 08:03:10;;;;;;;8.10;3.78;;;;;;;13.25;31.05;101812.16;5035078;28;20038;-74
2022/03/22 08:05:36;;;;;;;8.25;4.00;;;;;;;13.10;29.94;101808.56;5035638;28;20487;-75
2022/03/22 08:08:03;;;;;;;8.90;3.40;;;;;;;13.11;30.29;101804.81;5013511;28;20042;-76
2022/03/22 08:10:30;;;;;;;8.15;3.75;;;;;;;13.46;30.07;101809.47;4996552;28;20081;-76
2022/03/22 08:13:06;;;;;;;6.68;3.13;;;;;;;13.51;29.94;101808.91;4996453;28;20393;-75
2022/03/22 08:15:31;;;;;;;7.90;3.72;;;;;;;13.76;29.36;101810.25;4995515;28;20026;-76
2022/03/22 08:17:57;;;;;;;9.75;3.92;;;;;;;13.88;29.21;101811.41;5010999;28;20484;-76
2022/03/22 08:20:27;;;;;;;7.45;3.63;;;;;;;13.83;29.67;101813.84;5010506;28;20034;-75
2022/03/22 08:23:04;;;;;;;7.47;3.80;;;;;;;13.75;30.24;101813.16;4995378;28;20659;-75
2022/03/22 08:25:40;;;;;;;7.07;3.33;;;;;;;13.68;30.07;101807.66;4995978;28;20117;-75
2022/03/22 08:28:10;;;;;;;7.97;3.38;;;;;;;13.81;30.14;101815.06;5010727;28;20033;-75
2022/03/22 08:30:37;;;;;;;9.23;3.92;;;;;;;14.04;29.90;101820.31;4995647;28;20061;-75
2022/03/22 08:33:06;;;;;;;9.38;4.60;;;;;;;13.99;29.94;101804.63;5011375;28;20113;-75
2022/03/22 08:35:31;;;;;;;8.63;3.35;;;;;;;14.19;30.05;101804.81;4995471;28;20035;-76
2022/03/22 08:37:57;;;;;;;6.60;3.40;;;;;;;14.25;29.30;101812.19;4995473;28;20037;-75
2022/03/22 08:40:23;;;;;;;9.10;3.92;;;;;;;14.41;29.09;101808.38;4995097;28;20121;-76
2022/03/22 08:42:51;;;;;;;6.78;3.35;;;;;;;14.40;28.57;101812.09;5010080;28;20361;-75
2022/03/22 08:45:19;;;;;;;6.95;3.05;;;;;;;14.49;27.18;101805.53;4995153;28;20126;-76
2022/03/22 08:47:54;;;;;;;6.68;3.40;;;;;;;14.61;27.68;101809.38;4994773;28;20038;-75
2022/03/22 08:50:22;;;;;;;7.22;3.55;;;;;;;14.70;27.47;101805.47;4994535;28;20037;-75
2022/03/22 08:52:49;;;;;;;8.25;3.88;;;;;;;14.96;26.93;101802.09;4995107;28;20034;-74
2022/03/22 08:55:17;;;;;;;10.52;3.60;;;;;;;14.80;27.51;101808.69;4994973;28;20043;-75
2022/03/22 08:57:44;;;;;;;6.35;2.70;;;;;;;14.81;27.59;101804.94;4995007;28;20531;-76
2022/03/22 09:00:11;;;;;;;6.80;3.30;;;;;;;14.68;28.00;101807.56;5010042;28;20053;-76
2022/03/22 09:02:38;;;;;;;8.77;3.75;;;;;;;15.00;27.44;101803.38;4993240;28;20038;-75
2022/03/22 09:07:56;;;;;;;7.97;3.45;;;;;;;15.20;27.56;101804.31;5026490;28;20127;-77
2022/03/22 09:10:33;;;;;;;6.90;3.70;;;;;;;15.29;27.85;101802.25;5034667;28;20047;-76
2022/03/22 09:12:59;;;;;;;;;;;;;;;15.47;27.66;101799.81;5034384;28;20041;-76
2022/03/22 09:15:27;;;;;;;6.43;3.35;;;;;;;15.73;26.24;101799.09;5034271;28;19913;-76
2022/03/22 09:17:53;;;;;;;10.57;3.67;;;;;;;15.69;26.31;101803.25;5033626;28;20068;-75
2022/03/22 09:20:20;;;;;;;10.00;3.42;;;;;;;15.64;26.47;101800.31;5016279;28;20120;-75
2022/03/22 09:22:51;;;;;;;8.05;3.92;;;;;;;15.52;26.83;101797.34;5033922;28;20033;-75
2022/03/22 09:25:17;;;;;;;7.97;3.67;;;;;;;15.44;27.07;101797.50;5032725;28;20025;-75
2022/03/22 09:27:44;;;;;;;10.95;3.88;;;;;;;15.40;26.81;101798.13;5032464;28;20140;-75
2022/03/22 09:30:10;;;;;;;8.57;3.80;;;;;;;15.60;27.98;101797.16;5032376;28;20534;-75
2022/03/22 09:32:36;;;;;;;9.60;3.90;;;;;;;15.50;27.95;101791.25;5034068;28;20033;-76
2022/03/22 09:35:06;;;;;;;9.43;3.58;;;;;;;15.56;27.64;101801.34;5016044;28;20124;-76
2022/03/22 09:37:33;;;;;;;7.55;3.22;;;;;;;15.77;27.48;101794.06;5034038;28;20448;-77
2022/03/22 09:39:58;;;;;;;6.65;3.42;;;;;;;15.92;27.24;101786.59;5034055;28;20029;-74
2022/03/22 09:42:23;;;;;;;8.37;3.27;;;;;;;15.85;27.75;101786.56;5033339;28;20490;-75
2022/03/22 09:44:51;;;;;;;8.02;3.38;;;;;;;16.09;27.23;101776.16;5033961;28;20319;-76
2022/03/22 09:47:16;;;;;;;8.02;3.55;;;;;;;16.19;26.93;101780.13;5033626;28;20049;-77
2022/03/22 09:49:52;;;;;;;9.82;4.25;;;;;;;16.47;26.70;101788.09;5033052;28;20029;-76
2022/03/22 09:52:18;;;;;;;9.37;3.53;;;;;;;16.54;27.18;101778.00;5032515;28;20042;-76
2022/03/22 09:54:44;;;;;;;7.53;3.50;;;;;;;16.57;28.32;101769.44;5033023;28;20029;-75
2022/03/22 09:57:10;;;;;;;9.10;4.10;;;;;;;16.62;27.81;101776.97;5033399;28;20029;-75
2022/03/22 09:59:36;;;;;;;;;;;;;;;16.66;27.07;101770.91;5033511;28;20562;-76
2022/03/22 10:02:03;;;;;;;6.78;3.40;;;;;;;17.09;27.64;101769.53;5032919;28;19917;-75
2022/03/22 10:04:44;;;;;;;8.38;3.92;;;;;;;16.99;26.62;101761.84;5033344;28;20452;-75
2022/03/22 10:07:19;;;;;;;9.63;3.53;;;;;;;17.00;26.12;101763.50;5033242;28;20053;-75
2022/03/22 10:09:58;;;;;;;8.32;3.38;;;;;;;16.92;26.83;101767.28;5033484;28;20029;-75
2022/03/22 10:12:29;;;;;;;7.43;4.15;;;;;;;17.00;26.94;101766.22;5032618;28;20037;-74
2022/03/22 10:15:05;;;;;;;7.82;3.50;;;;;;;17.12;26.37;101761.78;5033022;28;20033;-76
2022/03/22 10:17:31;;;;;;;8.15;3.40;;;;;;;16.99;26.83;101759.09;5033102;28;20048;-75
2022/03/22 10:19:56;;;;;;;7.82;3.47;;;;;;;17.12;26.79;101755.50;5031765;28;20030;-76
2022/03/22 10:22:23;;;;;;;;;;;;;;;16.79;27.11;101756.44;5033217;28;20033;-76
2022/03/22 10:24:51;;;;;;;7.15;3.60;;;;;;;17.06;27.11;101761.78;5033264;28;20374;-76
2022/03/22 10:27:28;;;;;;;8.85;3.75;;;;;;;17.07;27.38;101760.75;5033373;28;20039;-75
2022/03/22 10:29:57;;;;;;;9.20;4.28;;;;;;;16.96;27.14;101754.94;5033306;28;20068;-76
2022/03/22 10:32:33;;;;;;;8.25;3.60;;;;;;;16.94;27.17;101750.75;5033321;28;20033;-76
2022/03/22 10:35:17;;;;;;;8.95;3.88;;;;;;;17.09;27.13;101753.19;5033231;28;20038;-76
2022/03/22 10:38:15;;;;;;;9.43;4.07;;;;;;;17.60;26.67;101751.25;5033281;28;20025;-75
2022/03/22 10:40:44;;;;;;;9.07;3.75;;;;;;;17.55;26.42;101751.09;5011863;28;20395;-76
2022/03/22 10:43:20;;;;;;;9.13;4.07;;;;;;;17.49;26.54;101756.56;5032487;28;20033;-75
2022/03/22 10:46:02;;;;;;;7.57;3.70;;;;;;;17.21;26.99;101746.00;5033088;28;20125;-76
2022/03/22 10:48:34;;;;;;;8.18;3.60;;;;;;;17.35;27.04;101745.75;5031708;28;20033;-76
2022/03/22 10:51:01;;;;;;;8.07;4.38;;;;;;;17.40;26.65;101741.53;5014812;28;20026;-76
2022/03/22 10:53:31;;;;;;;8.73;4.18;;;;;;;17.30;26.78;101736.56;5032254;28;20036;-76
2022/03/22 10:55:59;;;;;;;8.48;3.97;;;;;;;17.53;26.65;101742.31;5031225;28;20072;-76
2022/03/22 10:58:29;;;;;;;7.88;3.55;;;;;;;17.45;26.82;101738.97;5032415;28;20099;-76
2022/03/22 11:00:56;;;;;;;7.82;4.00;;;;;;;17.34;27.16;101740.53;5032279;28;20037;-76
2022/03/22 11:03:25;;;;;;;7.40;3.15;;;;;;;17.65;26.79;101735.13;5031248;28;20103;-75
2022/03/22 11:05:53;;;;;;;7.82;3.60;;;;;;;17.35;26.66;101729.41;5032403;28;20034;-78
2022/03/22 11:08:22;;;;;;;8.98;3.85;;;;;;;17.49;26.85;101732.06;5032703;28;20049;-77
2022/03/22 11:10:54;;;;;;;7.00;3.30;;;;;;;17.59;27.12;101729.66;5032163;28;20022;-76
2022/03/22 11:13:20;;;;;;;8.00;3.78;;;;;;;17.72;26.67;101729.63;5035683;28;20030;-76
2022/03/22 11:15:47;;;;;;;7.78;3.17;;;;;;;17.92;26.28;101724.00;5036258;28;20026;-77
2022/03/22 11:18:14;;;;;;;7.88;3.58;;;;;;;18.00;26.35;101723.75;5036569;28;20044;-77
2022/03/22 11:20:55;;;;;;;7.25;3.05;;;;;;;18.02;26.02;101716.19;5036381;28;20033;-76
2022/03/22 11:23:24;;;;;;;9.93;4.10;;;;;;;18.25;26.01;101716.41;5034810;28;20030;-77
2022/03/22 11:25:50;;;;;;;7.10;3.55;;;;;;;18.21;25.93;101717.91;5035972;28;20032;-77
2022/03/22 11:28:22;;;;;;;;;;;;;;;18.14;26.05;101711.66;5036042;28;20030;-78
2022/03/22 11:30:49;;;;;;;8.10;3.92;;;;;;;18.31;26.31;101706.47;5035947;28;19983;-77
2022/03/22 11:36:13;;;;;;;8.10;3.50;;;;;;;18.27;25.88;101708.00;5035913;28;20037;-76
2022/03/22 11:38:44;;;;;;;8.55;3.42;;;;;;;18.35;25.89;101697.63;5035592;28;20480;-76
2022/03/22 11:44:13;;;;;;;7.95;3.65;;;;;;;18.07;25.83;101700.00;5035595;28;20113;-76
2022/03/22 11:46:39;;;;;;;7.80;3.25;;;;;;;18.26;25.84;101692.69;5036104;28;20026;-77
2022/03/22 11:49:27;;;;;;;;;;;;;;;18.42;25.37;101691.25;5034877;28;20026;-76
2022/03/22 11:51:58;;;;;;;6.10;3.22;;;;;;;18.58;25.10;101690.66;5034662;28;19917;-76
2022/03/22 11:54:34;;;;;;;7.38;3.45;;;;;;;18.64;25.33;101693.34;5035589;28;20117;-76
2022/03/22 11:56:59;;;;;;;8.10;3.25;;;;;;;18.38;25.38;101683.53;5036377;28;20036;-75
2022/03/22 11:59:25;;;;;;;;;;;;;;;18.65;25.08;101694.16;5040436;28;20029;-76